createdAt,value
2019-05-03T00:01:53.271Z,10.9
2019-05-03T00:17:07.787Z,10.9
2019-05-03T00:32:21.520Z,11
2019-05-03T00:47:36.926Z,11.1
2019-05-03T01:02:51.778Z,11.1
2019-05-03T01:18:06.071Z,11
2019-05-03T01:33:12.107Z,11.1
2019-05-03T01:48:35.210Z,11
2019-05-03T02:03:49.746Z,11
2019-05-03T02:19:04.326Z,10.9
2019-05-03T02:34:18.885Z,10.9
2019-05-03T02:49:31.331Z,10.6
2019-05-03T03:04:47.468Z,10.2
2019-05-03T03:20:01.705Z,10
2019-05-03T03:35:20.590Z,9.6
2019-05-03T03:50:29.561Z,9.2
2019-05-03T04:05:46.004Z,9
2019-05-03T04:20:57.091Z,8.8
2019-05-03T04:36:10.719Z,8.7
2019-05-03T04:51:25.800Z,8.5
2019-05-03T05:06:38.132Z,8.5
2019-05-03T05:21:51.525Z,8.7
2019-05-03T05:37:05.432Z,8.6
2019-05-03T05:52:18.743Z,8.4
2019-05-03T06:07:27.715Z,8.4
2019-05-03T06:22:45.855Z,8.3
2019-05-03T06:37:59.411Z,8.4
2019-05-03T06:53:15.474Z,8.5
2019-05-03T07:08:26.651Z,8.7
2019-05-03T07:23:40.362Z,8.7
2019-05-03T07:38:55.503Z,8.7
2019-05-03T07:54:07.797Z,8.9
2019-05-03T08:09:21.554Z,9.1
2019-05-03T08:24:34.528Z,9.1
2019-05-03T08:39:49.232Z,9.1
2019-05-03T08:55:05.115Z,9.2
2019-05-03T09:10:17.179Z,9.4
2019-05-03T09:25:24.729Z,9.7
2019-05-03T09:40:45.567Z,9.7
2019-05-03T09:55:59.434Z,9.7
2019-05-03T10:11:15.429Z,9.8
2019-05-03T10:26:27.834Z,10.1
2019-05-03T10:41:42.139Z,10.5
2019-05-03T10:56:56.589Z,10.5
2019-05-03T11:12:11.032Z,10.3
2019-05-03T11:27:25.916Z,10.1
2019-05-03T11:42:35.939Z,10.4
2019-05-03T11:57:56.382Z,11.4
2019-05-03T12:13:08.918Z,11.6
2019-05-03T12:28:25.643Z,12.5
2019-05-03T12:43:29.699Z,13.1
2019-05-03T12:58:55.240Z,13.1
2019-05-03T13:14:10.422Z,12.8
2019-05-03T13:29:26.876Z,12.1
2019-05-03T13:44:40.871Z,12.9
2019-05-03T13:59:54.952Z,13.6
2019-05-03T14:15:12.291Z,12.7
2019-05-03T14:30:27.244Z,12.4
2019-05-03T14:45:42.356Z,12.2
2019-05-03T15:00:47.609Z,12.2
2019-05-03T15:16:14.358Z,12.5
2019-05-03T15:31:27.674Z,11.8
2019-05-03T15:46:42.608Z,11.9
2019-05-03T16:01:57.742Z,12.9
2019-05-03T16:17:10.218Z,12.1
2019-05-03T16:32:28.024Z,12.6
2019-05-03T16:47:44.792Z,13.1
2019-05-03T17:02:58.834Z,12.5
2019-05-03T17:18:03.663Z,12.3
2019-05-03T17:33:28.884Z,12
2019-05-03T17:48:45.224Z,11.4
2019-05-03T18:04:06.480Z,10.9
2019-05-03T18:19:12.930Z,10.6
2019-05-03T18:34:24.891Z,10.3
2019-05-03T18:49:41.586Z,10
2019-05-03T19:04:55.903Z,9.8
2019-05-03T19:20:09.743Z,9.7
2019-05-03T19:35:15.653Z,9.6
2019-05-03T19:50:37.807Z,9.6
2019-05-03T20:05:51.769Z,9.4
2019-05-03T20:21:05.955Z,10.9
2019-05-03T20:36:20.101Z,9.6
2019-05-03T20:51:32.244Z,9.1
2019-05-03T21:06:47.839Z,9.6
2019-05-03T21:22:02.086Z,10.2
2019-05-03T21:37:16.107Z,9.4
2019-05-03T21:52:20.911Z,9
2019-05-03T22:07:44.359Z,8.6
2019-05-03T22:22:57.228Z,8.4
2019-05-03T22:38:10.776Z,8.4
2019-05-03T22:53:25.341Z,8.3
2019-05-03T23:08:36.170Z,8.5
2019-05-03T23:23:51.492Z,8.5
2019-05-03T23:39:05.447Z,8.4
2019-05-03T23:54:18.592Z,8.3
